createdAt,value
2022-10-05T00:01:01.169Z,6.79
2022-10-05T00:03:37.095Z,6.77
2022-10-05T00:06:04.994Z,6.79
2022-10-05T00:08:35.449Z,6.75
2022-10-05T00:11:07.333Z,6.74
2022-10-05T00:13:37.355Z,6.76
2022-10-05T00:16:22.256Z,6.74
2022-10-05T00:18:52.284Z,6.69
2022-10-05T00:21:29.425Z,6.70
2022-10-05T00:23:58.595Z,6.64
2022-10-05T00:26:35.469Z,6.63
2022-10-05T00:29:07.856Z,6.62
2022-10-05T00:31:37.231Z,6.62
2022-10-05T00:34:04.753Z,6.55
2022-10-05T00:36:32.463Z,6.52
2022-10-05T00:39:01.756Z,6.53
2022-10-05T00:42:04.722Z,6.49
2022-10-05T00:44:46.437Z,6.47
2022-10-05T00:47:29.162Z,6.44
2022-10-05T00:50:26.572Z,6.40
2022-10-05T00:53:21.648Z,6.38
2022-10-05T00:56:07.361Z,6.42
2022-10-05T00:59:29.983Z,6.36
2022-10-05T01:02:09.390Z,6.37
2022-10-05T01:04:46.589Z,6.32
2022-10-05T01:07:22.380Z,6.37
2022-10-05T01:10:19.157Z,6.33
2022-10-05T01:12:55.902Z,6.34
2022-10-05T01:15:37.417Z,6.33
2022-10-05T01:18:32.878Z,6.29
2022-10-05T01:21:18.525Z,6.29
2022-10-05T01:23:45.965Z,6.34
2022-10-05T01:26:32.269Z,6.30
2022-10-05T01:29:15.633Z,6.32
2022-10-05T01:31:50.493Z,6.32
2022-10-05T01:34:32.799Z,6.32
2022-10-05T01:37:25.040Z,6.24
2022-10-05T01:40:16.030Z,6.16
2022-10-05T01:42:49.458Z,6.17
2022-10-05T01:45:29.148Z,6.10
2022-10-05T01:48:14.994Z,6.04
2022-10-05T01:50:50.202Z,6.08
2022-10-05T01:53:55.342Z,6.07
2022-10-05T01:56:47.830Z,6.06
2022-10-05T01:59:35.199Z,6.04
2022-10-05T02:02:10.636Z,6.02
2022-10-05T02:05:01.418Z,6.01
2022-10-05T02:07:43.686Z,5.99
2022-10-05T02:10:22.117Z,5.96
2022-10-05T02:13:01.858Z,5.93
2022-10-05T02:15:44.204Z,5.91
2022-10-05T02:18:30.892Z,5.95
2022-10-05T02:21:02.966Z,5.97
2022-10-05T02:23:35.242Z,5.99
2022-10-05T02:26:06.031Z,5.98
2022-10-05T02:28:45.299Z,5.99
2022-10-05T02:31:25.979Z,6.00
2022-10-05T02:33:53.508Z,5.95
2022-10-05T02:36:36.263Z,5.88
2022-10-05T02:39:33.981Z,5.87
2022-10-05T02:42:17.283Z,5.88
2022-10-05T02:44:47.446Z,5.90
2022-10-05T02:47:33.469Z,5.85
2022-10-05T02:50:24.388Z,5.79
2022-10-05T02:53:13.045Z,5.70
2022-10-05T02:56:11.743Z,5.66
2022-10-05T02:58:46.942Z,5.64
2022-10-05T03:01:28.868Z,5.64
2022-10-05T03:04:16.639Z,5.63
2022-10-05T03:06:57.719Z,5.61
2022-10-05T03:09:32.846Z,5.62
2022-10-05T03:12:07.397Z,5.56
2022-10-05T03:14:50.892Z,5.53
2022-10-05T03:17:26.629Z,5.51
2022-10-05T03:20:13.932Z,5.55
2022-10-05T03:22:50.221Z,5.52
2022-10-05T03:25:41.923Z,5.46
2022-10-05T03:28:24.203Z,5.47
2022-10-05T03:31:20.509Z,5.46
2022-10-05T03:33:54.263Z,5.43
2022-10-05T03:36:47.332Z,5.41
2022-10-05T03:39:33.866Z,5.39
2022-10-05T03:42:01.331Z,5.44
2022-10-05T03:44:46.775Z,5.45
2022-10-05T03:47:35.828Z,5.48
2022-10-05T03:50:07.670Z,5.48
2022-10-05T03:52:47.345Z,5.46
2022-10-05T03:55:26.685Z,5.46
2022-10-05T03:57:57.567Z,5.51
2022-10-05T04:00:27.876Z,5.48
2022-10-05T04:03:13.314Z,5.43
2022-10-05T04:05:49.675Z,5.49
2022-10-05T04:08:58.541Z,5.49
2022-10-05T04:11:34.529Z,5.49
2022-10-05T04:14:12.197Z,5.45
2022-10-05T04:16:48.503Z,5.49
2022-10-05T04:19:54.601Z,5.49
2022-10-05T04:22:26.494Z,5.45
2022-10-05T04:24:59.556Z,5.43
2022-10-05T04:27:44.991Z,5.45
2022-10-05T04:30:17.361Z,5.43
2022-10-05T04:32:57.226Z,5.40
2022-10-05T04:35:24.697Z,5.40
2022-10-05T04:38:18.998Z,5.41
2022-10-05T04:41:21.846Z,5.42
2022-10-05T04:44:10.469Z,5.40
2022-10-05T04:47:11.931Z,5.49
2022-10-05T04:50:18.813Z,5.46
2022-10-05T04:52:49.408Z,5.48
2022-10-05T04:55:23.390Z,5.50
2022-10-05T04:57:56.510Z,5.50
2022-10-05T05:00:39.061Z,5.46
2022-10-05T05:03:12.660Z,5.46
2022-10-05T05:06:15.478Z,5.49
2022-10-05T05:08:58.215Z,5.54
2022-10-05T05:11:54.073Z,5.65
2022-10-05T05:14:24.353Z,5.68
2022-10-05T05:17:12.208Z,5.71
2022-10-05T05:20:17.220Z,5.79
2022-10-05T05:22:56.779Z,5.85
2022-10-05T05:25:44.650Z,5.97
2022-10-05T05:28:18.321Z,6.02
2022-10-05T05:31:08.923Z,6.03
2022-10-05T05:33:53.664Z,6.14
2022-10-05T05:36:39.485Z,6.24
2022-10-05T05:39:27.138Z,6.28
2022-10-05T05:42:06.326Z,6.38
2022-10-05T05:44:56.681Z,6.42
2022-10-05T05:47:37.681Z,6.51
2022-10-05T05:50:43.216Z,6.56
2022-10-05T05:53:18.139Z,6.65
2022-10-05T05:56:11.003Z,6.76
2022-10-05T05:58:51.797Z,6.87
2022-10-05T06:01:44.475Z,7.00
2022-10-05T06:04:18.993Z,7.14
2022-10-05T06:06:53.083Z,7.26
2022-10-05T06:09:46.399Z,7.41
2022-10-05T06:12:32.882Z,7.59
2022-10-05T06:15:04.733Z,7.73
2022-10-05T06:17:41.558Z,7.94
2022-10-05T06:20:29.586Z,8.13
2022-10-05T06:23:03.319Z,8.32
2022-10-05T06:25:45.741Z,8.50
2022-10-05T06:28:16.106Z,8.65
2022-10-05T06:31:04.949Z,8.85
2022-10-05T06:33:52.672Z,9.00
2022-10-05T06:36:27.179Z,9.21
2022-10-05T06:39:13.770Z,9.45
2022-10-05T06:42:10.446Z,9.65
2022-10-05T06:45:20.369Z,9.83
2022-10-05T06:48:12.429Z,9.98
2022-10-05T06:50:45.671Z,10.08
2022-10-05T06:53:52.673Z,10.22
2022-10-05T06:56:35.379Z,10.46
2022-10-05T06:59:41.903Z,10.78
2022-10-05T07:02:30.845Z,11.20
2022-10-05T07:05:22.530Z,11.70
2022-10-05T07:07:59.168Z,12.58
2022-10-05T07:10:32.858Z,13.76
2022-10-05T07:13:23.839Z,15.25
2022-10-05T07:16:07.050Z,16.71
2022-10-05T07:18:37.403Z,17.32
2022-10-05T07:21:48.269Z,16.86
2022-10-05T07:24:48.324Z,16.39
2022-10-05T07:27:30.420Z,17.67
2022-10-05T07:30:12.392Z,17.84
2022-10-05T07:33:27.548Z,19.66
2022-10-05T07:36:35.447Z,19.97
2022-10-05T07:39:23.513Z,20.33
2022-10-05T07:42:04.487Z,21.07
2022-10-05T07:44:40.547Z,22.00
2022-10-05T07:47:35.725Z,22.03
2022-10-05T07:50:25.732Z,22.75
2022-10-05T07:53:06.335Z,21.91
2022-10-05T07:55:40.207Z,21.59
2022-10-05T07:58:27.586Z,21.97
2022-10-05T08:01:01.180Z,22.36
2022-10-05T08:03:44.071Z,23.16
2022-10-05T08:06:31.926Z,23.14
2022-10-05T08:09:30.314Z,23.25
2022-10-05T08:12:34.205Z,23.54
2022-10-05T08:15:15.075Z,23.72
2022-10-05T08:17:49.941Z,24.47
2022-10-05T08:20:33.341Z,24.39
2022-10-05T08:23:16.845Z,23.72
2022-10-05T08:25:58.028Z,23.30
2022-10-05T08:28:29.748Z,23.43
2022-10-05T08:31:02.967Z,22.37
2022-10-05T08:33:41.257Z,21.50
2022-10-05T08:36:18.776Z,22.53
2022-10-05T08:38:46.700Z,22.75
2022-10-05T08:41:52.821Z,23.58
2022-10-05T08:44:55.077Z,21.42
2022-10-05T08:47:28.042Z,21.62
2022-10-05T08:50:17.268Z,21.97
2022-10-05T08:53:03.038Z,20.68
2022-10-05T08:55:39.377Z,19.76
2022-10-05T08:58:26.327Z,18.88
2022-10-05T09:01:08.521Z,18.45
2022-10-05T09:04:00.969Z,17.69
2022-10-05T09:07:09.171Z,18.30
2022-10-05T09:10:01.915Z,19.04
2022-10-05T09:12:48.216Z,20.51
2022-10-05T09:16:03.914Z,21.28
2022-10-05T09:18:55.834Z,21.02
2022-10-05T09:21:46.708Z,22.02
2022-10-05T09:24:14.381Z,21.70
2022-10-05T09:26:41.860Z,21.44
2022-10-05T09:29:34.374Z,21.33
2022-10-05T09:32:21.809Z,22.21
2022-10-05T09:34:58.412Z,22.80
2022-10-05T09:37:41.617Z,22.87
2022-10-05T09:40:41.754Z,22.51
2022-10-05T09:43:24.140Z,21.70
2022-10-05T09:46:09.413Z,22.83
2022-10-05T09:49:01.314Z,22.68
2022-10-05T09:52:06.183Z,22.51
2022-10-05T09:55:11.266Z,21.39
2022-10-05T09:58:03.859Z,21.56
2022-10-05T10:00:55.643Z,20.09
2022-10-05T10:04:07.101Z,20.50
2022-10-05T10:07:17.560Z,20.49
2022-10-05T10:10:29.277Z,20.30
2022-10-05T10:13:14.864Z,21.26
2022-10-05T10:16:05.511Z,22.46
2022-10-05T10:19:04.033Z,22.87
2022-10-05T10:21:42.188Z,23.26
2022-10-05T10:24:38.416Z,24.14
2022-10-05T10:27:12.088Z,24.10
2022-10-05T10:29:58.774Z,23.80
2022-10-05T10:32:44.910Z,22.55
2022-10-05T10:35:37.826Z,22.36
2022-10-05T10:38:41.262Z,21.85
2022-10-05T10:41:30.727Z,21.73
2022-10-05T10:44:38.926Z,21.20
2022-10-05T10:47:32.381Z,21.01
2022-10-05T10:50:17.986Z,20.94
2022-10-05T10:53:17.989Z,20.16
2022-10-05T10:55:51.429Z,20.36
2022-10-05T10:58:21.646Z,21.01
2022-10-05T11:01:32.325Z,20.83
2022-10-05T11:04:22.877Z,20.00
2022-10-05T11:07:19.748Z,20.02
2022-10-05T11:10:02.330Z,20.43
2022-10-05T11:13:08.913Z,20.31
2022-10-05T11:16:01.647Z,20.29
2022-10-05T11:18:41.249Z,21.40
2022-10-05T11:21:30.363Z,21.82
2022-10-05T11:24:16.828Z,21.63
2022-10-05T11:27:07.496Z,21.97
2022-10-05T11:30:13.981Z,21.70
2022-10-05T11:32:44.384Z,22.23
2022-10-05T11:35:36.502Z,21.71
2022-10-05T11:38:25.387Z,21.42
2022-10-05T11:41:08.507Z,21.34
2022-10-05T11:43:47.974Z,21.08
2022-10-05T11:46:23.848Z,21.27
2022-10-05T11:49:34.610Z,21.38
2022-10-05T11:52:05.157Z,20.95
2022-10-05T11:57:47.431Z,22.04
2022-10-05T12:00:20.874Z,22.37
2022-10-05T12:03:16.043Z,22.91
2022-10-05T12:06:07.186Z,22.15
2022-10-05T12:08:51.600Z,21.83
2022-10-05T12:11:25.200Z,20.87
2022-10-05T12:14:02.922Z,20.90
2022-10-05T12:16:45.350Z,21.18
2022-10-05T12:19:57.687Z,20.81
2022-10-05T12:22:43.835Z,20.50
2022-10-05T12:25:21.598Z,19.99
2022-10-05T12:27:53.556Z,19.66
2022-10-05T12:30:27.424Z,19.52
2022-10-05T12:33:19.934Z,19.54
2022-10-05T12:36:22.375Z,19.44
2022-10-05T12:39:21.061Z,20.37
2022-10-05T12:41:57.693Z,20.45
2022-10-05T12:44:37.561Z,20.49
2022-10-05T12:47:26.675Z,20.48
2022-10-05T12:49:58.689Z,20.48
2022-10-05T12:52:38.170Z,20.69
2022-10-05T12:55:26.159Z,20.41
2022-10-05T12:58:12.217Z,19.95
2022-10-05T13:00:51.714Z,19.65
2022-10-05T13:03:25.273Z,19.78
2022-10-05T13:06:10.933Z,19.58
2022-10-05T13:08:54.757Z,19.38
2022-10-05T13:11:28.751Z,19.54
2022-10-05T13:14:07.382Z,19.20
2022-10-05T13:16:56.271Z,19.08
2022-10-05T13:19:36.514Z,19.02
2022-10-05T13:22:35.366Z,18.94
2022-10-05T13:25:09.131Z,19.07
2022-10-05T13:27:42.016Z,19.07
2022-10-05T13:30:18.149Z,19.29
2022-10-05T13:32:53.009Z,19.24
2022-10-05T13:35:52.309Z,19.19
2022-10-05T13:38:45.821Z,19.15
2022-10-05T13:41:25.841Z,19.02
2022-10-05T13:44:22.132Z,18.70
2022-10-05T13:46:57.263Z,18.48
2022-10-05T13:49:58.979Z,18.38
2022-10-05T13:52:42.233Z,18.12
2022-10-05T13:55:21.993Z,18.07
2022-10-05T13:58:05.879Z,18.01
2022-10-05T14:00:37.977Z,18.17
2022-10-05T14:03:34.999Z,18.04
2022-10-05T14:06:07.034Z,18.07
2022-10-05T14:08:37.083Z,17.99
2022-10-05T14:11:23.265Z,18.08
2022-10-05T14:13:50.931Z,18.06
2022-10-05T14:16:21.485Z,18.05
2022-10-05T14:18:54.104Z,18.05
2022-10-05T14:21:25.001Z,18.00
2022-10-05T14:23:54.277Z,17.97
2022-10-05T14:26:24.852Z,18.03
2022-10-05T14:28:59.932Z,18.00
2022-10-05T14:31:34.815Z,17.93
2022-10-05T14:34:29.273Z,17.95
2022-10-05T14:37:00.324Z,17.95
2022-10-05T14:39:29.824Z,17.84
2022-10-05T14:41:57.374Z,17.84
2022-10-05T14:47:18.293Z,17.66
2022-10-05T14:50:17.665Z,17.57
2022-10-05T14:52:51.818Z,17.49
2022-10-05T14:55:20.110Z,17.43
2022-10-05T14:58:17.099Z,17.42
2022-10-05T15:00:57.346Z,17.41
2022-10-05T15:03:49.294Z,17.30
2022-10-05T15:06:38.198Z,17.27
2022-10-05T15:09:17.577Z,17.17
2022-10-05T15:11:56.772Z,17.11
2022-10-05T15:14:40.089Z,17.07
2022-10-05T15:17:35.123Z,17.01
2022-10-05T15:20:24.902Z,16.90
2022-10-05T15:22:52.368Z,16.86
2022-10-05T15:25:27.867Z,16.78
2022-10-05T15:28:21.461Z,16.75
2022-10-05T15:31:00.165Z,16.69
2022-10-05T15:33:28.760Z,16.63
2022-10-05T15:36:02.180Z,16.56
2022-10-05T15:38:38.347Z,16.46
2022-10-05T15:41:24.827Z,16.42
2022-10-05T15:44:15.677Z,16.38
2022-10-05T15:46:56.518Z,16.34
2022-10-05T15:49:36.921Z,16.27
2022-10-05T15:52:17.701Z,16.17
2022-10-05T15:55:35.223Z,16.10
2022-10-05T15:58:25.772Z,16.04
2022-10-05T16:01:04.950Z,15.87
2022-10-05T16:03:47.312Z,15.77
2022-10-05T16:06:51.125Z,15.67
2022-10-05T16:09:36.832Z,15.58
2022-10-05T16:12:10.438Z,15.65
2022-10-05T16:15:09.626Z,15.58
2022-10-05T16:17:55.497Z,15.50
2022-10-05T16:20:38.462Z,15.36
2022-10-05T16:23:29.803Z,15.22
2022-10-05T16:26:09.048Z,15.04
2022-10-05T16:29:00.991Z,14.98
2022-10-05T16:32:05.985Z,14.79
2022-10-05T16:34:33.488Z,14.66
2022-10-05T16:37:38.322Z,14.52
2022-10-05T16:40:22.235Z,14.40
2022-10-05T16:43:49.274Z,14.26
2022-10-05T16:46:36.666Z,14.17
2022-10-05T16:49:18.203Z,14.04
2022-10-05T16:52:01.940Z,13.95
2022-10-05T16:54:43.172Z,13.82
2022-10-05T16:57:23.603Z,13.73
2022-10-05T17:00:15.050Z,13.65
2022-10-05T17:03:02.194Z,13.57
2022-10-05T17:05:45.881Z,13.48
2022-10-05T17:08:44.565Z,13.43
2022-10-05T17:11:36.978Z,13.39
2022-10-05T17:14:22.878Z,13.30
2022-10-05T17:16:59.394Z,13.23
2022-10-05T17:19:54.044Z,13.14
2022-10-05T17:22:50.742Z,13.08
2022-10-05T17:25:47.426Z,13.05
2022-10-05T17:28:42.236Z,13.03
2022-10-05T17:31:09.923Z,12.95
2022-10-05T17:34:00.243Z,12.88
2022-10-05T17:36:49.581Z,12.83
2022-10-05T17:39:25.772Z,12.78
2022-10-05T17:41:54.041Z,12.71
2022-10-05T17:44:26.216Z,12.64
2022-10-05T17:47:04.877Z,12.58
2022-10-05T17:50:08.164Z,12.52
2022-10-05T17:52:53.878Z,12.51
2022-10-05T17:55:44.740Z,12.42
2022-10-05T17:58:24.570Z,12.40
2022-10-05T18:01:07.095Z,12.35
2022-10-05T18:03:43.997Z,12.30
2022-10-05T18:06:26.496Z,12.24
2022-10-05T18:09:17.483Z,12.20
2022-10-05T18:12:17.936Z,12.12
2022-10-05T18:14:57.518Z,12.08
2022-10-05T18:17:59.623Z,12.06
2022-10-05T18:20:27.295Z,12.00
2022-10-05T18:23:23.872Z,11.95
2022-10-05T18:26:05.708Z,11.90
2022-10-05T18:28:52.714Z,11.85
2022-10-05T18:32:02.897Z,11.83
2022-10-05T18:35:02.290Z,11.80
2022-10-05T18:38:12.061Z,11.86
2022-10-05T18:40:53.373Z,11.80
2022-10-05T18:43:30.033Z,11.78
2022-10-05T18:46:28.423Z,11.72
2022-10-05T18:49:06.181Z,11.71
2022-10-05T18:52:04.880Z,11.69
2022-10-05T18:54:57.727Z,11.64
2022-10-05T18:58:04.459Z,11.55
2022-10-05T19:00:51.375Z,11.56
2022-10-05T19:03:49.552Z,11.51
2022-10-05T19:06:37.334Z,11.46
2022-10-05T19:09:20.149Z,11.39
2022-10-05T19:12:05.702Z,11.36
2022-10-05T19:14:54.469Z,11.25
2022-10-05T19:17:54.415Z,11.21
2022-10-05T19:20:24.933Z,11.21
2022-10-05T19:23:02.153Z,11.19
2022-10-05T19:25:41.171Z,11.16
2022-10-05T19:28:17.161Z,11.11
2022-10-05T19:30:50.965Z,11.07
2022-10-05T19:33:33.530Z,11.02
2022-10-05T19:36:19.542Z,10.94
2022-10-05T19:39:05.719Z,10.93
2022-10-05T19:41:43.199Z,10.94
2022-10-05T19:44:35.319Z,10.91
2022-10-05T19:47:17.476Z,10.87
2022-10-05T19:49:55.288Z,10.86
2022-10-05T19:52:43.407Z,10.84
2022-10-05T19:55:23.204Z,10.77
2022-10-05T19:57:52.106Z,10.74
2022-10-05T20:00:37.725Z,10.72
2022-10-05T20:03:29.731Z,10.70
2022-10-05T20:06:02.406Z,10.69
2022-10-05T20:08:44.289Z,10.66
2022-10-05T20:11:14.641Z,10.62
2022-10-05T20:13:45.377Z,10.61
2022-10-05T20:16:46.142Z,10.54
2022-10-05T20:19:49.779Z,10.50
2022-10-05T20:22:26.236Z,10.48
2022-10-05T20:24:56.595Z,10.49
2022-10-05T20:27:53.173Z,10.48
2022-10-05T20:30:25.387Z,10.52
2022-10-05T20:32:57.556Z,10.49
2022-10-05T20:35:27.810Z,10.49
2022-10-05T20:37:59.074Z,10.56
2022-10-05T20:40:31.035Z,10.56
2022-10-05T20:42:59.271Z,10.56
2022-10-05T20:45:26.777Z,10.62
2022-10-05T20:47:55.010Z,10.67
2022-10-05T20:50:24.612Z,10.66
2022-10-05T20:52:52.878Z,10.61
2022-10-05T20:55:20.899Z,10.59
2022-10-05T20:57:51.299Z,10.57
2022-10-05T21:00:20.902Z,10.56
2022-10-05T21:02:48.385Z,10.55
2022-10-05T21:05:18.060Z,10.51
2022-10-05T21:07:45.964Z,10.45
2022-10-05T21:10:14.257Z,10.39
2022-10-05T21:12:42.129Z,10.31
2022-10-05T21:15:10.443Z,10.31
2022-10-05T21:17:38.024Z,10.26
2022-10-05T21:20:05.897Z,10.24
2022-10-05T21:22:35.469Z,10.21
2022-10-05T21:25:02.957Z,10.18
2022-10-05T21:27:31.076Z,10.19
2022-10-05T21:29:58.564Z,10.16
2022-10-05T21:32:26.079Z,10.10
2022-10-05T21:34:57.210Z,10.07
2022-10-05T21:37:26.834Z,10.04
2022-10-05T21:39:54.326Z,10.03
2022-10-05T21:42:23.515Z,10.04
2022-10-05T21:44:53.550Z,10.05
2022-10-05T21:47:21.064Z,10.00
2022-10-05T21:49:48.609Z,9.97
2022-10-05T21:52:16.193Z,9.92
2022-10-05T21:54:43.718Z,9.86
2022-10-05T21:57:12.999Z,9.86
2022-10-05T21:59:43.597Z,9.81
2022-10-05T22:02:11.073Z,9.74
2022-10-05T22:04:38.608Z,9.73
2022-10-05T22:07:20.473Z,9.73
2022-10-05T22:09:49.474Z,9.72
2022-10-05T22:12:20.791Z,9.63
2022-10-05T22:14:49.677Z,9.61
2022-10-05T22:17:27.327Z,9.62
2022-10-05T22:19:58.017Z,9.55
2022-10-05T22:22:26.932Z,9.53
2022-10-05T22:24:55.260Z,9.55
2022-10-05T22:27:28.526Z,9.56
2022-10-05T22:29:57.145Z,9.61
2022-10-05T22:32:25.289Z,9.63
2022-10-05T22:34:55.514Z,9.60
2022-10-05T22:37:23.018Z,9.64
2022-10-05T22:39:50.806Z,9.64
2022-10-05T22:42:18.256Z,9.68
2022-10-05T22:44:48.121Z,9.66
2022-10-05T22:47:15.625Z,9.68
2022-10-05T22:49:45.241Z,9.63
2022-10-05T22:52:12.752Z,9.62
2022-10-05T22:54:40.277Z,9.59
2022-10-05T22:57:08.233Z,9.62
2022-10-05T22:59:35.734Z,9.54
2022-10-05T23:02:04.488Z,9.54
2022-10-05T23:04:32.117Z,9.55
2022-10-05T23:06:59.640Z,9.55
2022-10-05T23:09:27.203Z,9.55
2022-10-05T23:11:54.674Z,9.52
2022-10-05T23:14:24.879Z,9.53
2022-10-05T23:16:52.464Z,9.54
2022-10-05T23:19:19.999Z,9.46
2022-10-05T23:21:47.453Z,9.58
2022-10-05T23:24:14.930Z,9.63
2022-10-05T23:26:42.403Z,9.69
2022-10-05T23:29:10.005Z,9.69
2022-10-05T23:31:37.497Z,9.72
2022-10-05T23:34:04.990Z,9.69
2022-10-05T23:36:35.894Z,9.72
2022-10-05T23:39:08.363Z,9.71
2022-10-05T23:41:35.822Z,9.72
2022-10-05T23:44:03.348Z,9.71
2022-10-05T23:46:30.826Z,9.69
2022-10-05T23:48:58.365Z,9.72
2022-10-05T23:51:27.978Z,9.71
2022-10-05T23:53:55.490Z,9.71
2022-10-05T23:56:23.222Z,9.72
2022-10-05T23:58:50.722Z,9.71
